sensor_id;sensor_type;location;lat;lon;timestamp;P1;P2;P0
69224;PMS1003;56333;51.306;17.056;2024-03-02T00:01:14;58.20;45.50;
69224;PMS1003;56333;51.306;17.056;2024-03-02T00:02:44;59.80;45.70;
69224;PMS1003;56333;51.306;17.056;2024-03-02T00:04:12;62.90;48.70;
69224;PMS1003;56333;51.306;17.056;2024-03-02T00:05:42;63.60;48.20;
69224;PMS1003;56333;51.306;17.056;2024-03-02T00:07:15;62.00;48.20;
69224;PMS1003;56333;51.306;17.056;2024-03-02T00:08:43;57.90;44.40;
69224;PMS1003;56333;51.306;17.056;2024-03-02T00:10:19;60.80;44.70;
69224;PMS1003;56333;51.306;17.056;2024-03-02T00:11:51;60.80;46.60;
69224;PMS1003;56333;51.306;17.056;2024-03-02T00:13:21;58.20;45.70;
69224;PMS1003;56333;51.306;17.056;2024-03-02T00:14:50;61.30;47.30;
69224;PMS1003;56333;51.306;17.056;2024-03-02T00:16:18;58.90;45.60;
69224;PMS1003;56333;51.306;17.056;2024-03-02T00:17:47;63.60;47.90;
69224;PMS1003;56333;51.306;17.056;2024-03-02T00:19:16;59.40;45.10;
69224;PMS1003;56333;51.306;17.056;2024-03-02T00:20:44;61.60;46.50;
69224;PMS1003;56333;51.306;17.056;2024-03-02T00:22:13;63.10;47.00;
69224;PMS1003;56333;51.306;17.056;2024-03-02T00:23:42;58.60;45.90;
69224;PMS1003;56333;51.306;17.056;2024-03-02T00:25:11;61.70;46.00;
69224;PMS1003;56333;51.306;17.056;2024-03-02T00:26:40;61.50;45.60;
69224;PMS1003;56333;51.306;17.056;2024-03-02T00:28:19;62.00;46.20;
69224;PMS1003;56333;51.306;17.056;2024-03-02T00:29:48;58.40;44.70;
69224;PMS1003;56333;51.306;17.056;2024-03-02T00:31:17;60.60;45.70;
69224;PMS1003;56333;51.306;17.056;2024-03-02T00:34:18;56.80;43.50;
69224;PMS1003;56333;51.306;17.056;2024-03-02T00:35:48;58.40;46.50;
69224;PMS1003;56333;51.306;17.056;2024-03-02T00:37:17;62.80;47.20;
69224;PMS1003;56333;51.306;17.056;2024-03-02T00:38:48;61.30;46.50;
69224;PMS1003;56333;51.306;17.056;2024-03-02T00:40:18;63.80;47.70;
69224;PMS1003;56333;51.306;17.056;2024-03-02T00:41:48;60.10;45.60;
69224;PMS1003;56333;51.306;17.056;2024-03-02T00:43:44;61.00;46.40;
69224;PMS1003;56333;51.306;17.056;2024-03-02T00:45:14;66.20;48.20;
69224;PMS1003;56333;51.306;17.056;2024-03-02T00:46:44;62.80;48.00;
69224;PMS1003;56333;51.306;17.056;2024-03-02T00:48:13;62.20;47.30;
69224;PMS1003;56333;51.306;17.056;2024-03-02T00:49:43;60.90;46.00;
69224;PMS1003;56333;51.306;17.056;2024-03-02T00:51:14;60.70;47.00;
69224;PMS1003;56333;51.306;17.056;2024-03-02T00:52:43;65.70;48.30;
69224;PMS1003;56333;51.306;17.056;2024-03-02T00:54:14;62.30;46.90;
69224;PMS1003;56333;51.306;17.056;2024-03-02T00:55:46;62.00;47.00;
69224;PMS1003;56333;51.306;17.056;2024-03-02T00:57:15;60.90;46.50;
69224;PMS1003;56333;51.306;17.056;2024-03-02T00:58:44;64.60;48.20;
69224;PMS1003;56333;51.306;17.056;2024-03-02T01:00:16;65.70;48.00;
69224;PMS1003;56333;51.306;17.056;2024-03-02T01:01:45;63.10;47.20;
69224;PMS1003;56333;51.306;17.056;2024-03-02T01:03:14;64.40;48.10;
69224;PMS1003;56333;51.306;17.056;2024-03-02T01:04:43;63.40;47.10;
69224;PMS1003;56333;51.306;17.056;2024-03-02T01:06:12;64.10;47.60;
69224;PMS1003;56333;51.306;17.056;2024-03-02T01:07:42;60.60;46.90;
69224;PMS1003;56333;51.306;17.056;2024-03-02T01:09:10;59.00;45.50;
69224;PMS1003;56333;51.306;17.056;2024-03-02T01:10:39;63.20;47.90;
69224;PMS1003;56333;51.306;17.056;2024-03-02T01:12:08;60.00;46.90;
69224;PMS1003;56333;51.306;17.056;2024-03-02T01:13:37;60.30;46.60;
69224;PMS1003;56333;51.306;17.056;2024-03-02T01:15:08;62.20;47.80;
69224;PMS1003;56333;51.306;17.056;2024-03-02T01:16:37;63.70;48.30;
69224;PMS1003;56333;51.306;17.056;2024-03-02T01:18:05;64.20;48.00;
69224;PMS1003;56333;51.306;17.056;2024-03-02T01:19:35;62.40;47.10;
69224;PMS1003;56333;51.306;17.056;2024-03-02T01:21:05;60.60;47.40;
69224;PMS1003;56333;51.306;17.056;2024-03-02T01:22:33;64.60;47.00;
69224;PMS1003;56333;51.306;17.056;2024-03-02T01:24:04;61.80;47.40;
69224;PMS1003;56333;51.306;17.056;2024-03-02T01:25:33;63.80;48.00;
69224;PMS1003;56333;51.306;17.056;2024-03-02T01:27:02;61.40;46.70;
69224;PMS1003;56333;51.306;17.056;2024-03-02T01:28:31;63.30;48.50;
69224;PMS1003;56333;51.306;17.056;2024-03-02T01:29:59;65.00;47.60;
69224;PMS1003;56333;51.306;17.056;2024-03-02T01:31:28;63.30;48.20;
69224;PMS1003;56333;51.306;17.056;2024-03-02T01:32:57;63.30;47.70;
69224;PMS1003;56333;51.306;17.056;2024-03-02T01:34:26;62.00;48.40;
69224;PMS1003;56333;51.306;17.056;2024-03-02T01:35:55;62.80;48.10;
69224;PMS1003;56333;51.306;17.056;2024-03-02T01:37:23;62.20;47.20;
69224;PMS1003;56333;51.306;17.056;2024-03-02T01:38:52;66.40;49.00;
69224;PMS1003;56333;51.306;17.056;2024-03-02T01:40:20;64.70;47.30;
69224;PMS1003;56333;51.306;17.056;2024-03-02T01:41:52;62.10;46.30;
69224;PMS1003;56333;51.306;17.056;2024-03-02T01:43:20;64.20;48.60;
69224;PMS1003;56333;51.306;17.056;2024-03-02T01:44:49;62.90;48.10;
69224;PMS1003;56333;51.306;17.056;2024-03-02T01:46:18;66.80;47.90;
69224;PMS1003;56333;51.306;17.056;2024-03-02T01:47:46;63.60;48.50;
69224;PMS1003;56333;51.306;17.056;2024-03-02T01:49:15;64.30;47.80;
69224;PMS1003;56333;51.306;17.056;2024-03-02T01:50:44;61.00;47.30;
69224;PMS1003;56333;51.306;17.056;2024-03-02T01:52:13;64.20;48.20;
69224;PMS1003;56333;51.306;17.056;2024-03-02T01:53:41;63.20;47.60;
69224;PMS1003;56333;51.306;17.056;2024-03-02T01:55:10;62.60;47.20;
69224;PMS1003;56333;51.306;17.056;2024-03-02T01:56:39;61.90;47.00;
69224;PMS1003;56333;51.306;17.056;2024-03-02T01:58:08;64.40;47.60;
69224;PMS1003;56333;51.306;17.056;2024-03-02T01:59:36;62.90;47.90;
69224;PMS1003;56333;51.306;17.056;2024-03-02T02:01:05;61.50;45.90;
69224;PMS1003;56333;51.306;17.056;2024-03-02T02:02:36;64.90;47.90;
69224;PMS1003;56333;51.306;17.056;2024-03-02T02:04:04;60.20;45.60;
69224;PMS1003;56333;51.306;17.056;2024-03-02T02:05:32;62.00;46.20;
69224;PMS1003;56333;51.306;17.056;2024-03-02T02:07:01;59.90;44.70;
69224;PMS1003;56333;51.306;17.056;2024-03-02T02:08:30;58.50;45.30;
69224;PMS1003;56333;51.306;17.056;2024-03-02T02:09:58;61.00;44.20;
69224;PMS1003;56333;51.306;17.056;2024-03-02T02:11:28;61.10;46.10;
69224;PMS1003;56333;51.306;17.056;2024-03-02T02:12:56;60.30;44.00;
69224;PMS1003;56333;51.306;17.056;2024-03-02T02:14:25;59.90;45.90;
69224;PMS1003;56333;51.306;17.056;2024-03-02T02:15:54;59.50;45.60;
69224;PMS1003;56333;51.306;17.056;2024-03-02T02:17:23;59.50;45.20;
69224;PMS1003;56333;51.306;17.056;2024-03-02T02:18:53;60.90;45.60;
69224;PMS1003;56333;51.306;17.056;2024-03-02T02:20:21;60.00;45.40;
69224;PMS1003;56333;51.306;17.056;2024-03-02T02:21:50;61.30;45.30;
69224;PMS1003;56333;51.306;17.056;2024-03-02T02:23:18;58.50;44.30;
69224;PMS1003;56333;51.306;17.056;2024-03-02T02:24:47;62.70;46.80;
69224;PMS1003;56333;51.306;17.056;2024-03-02T02:26:15;59.10;45.30;
69224;PMS1003;56333;51.306;17.056;2024-03-02T02:27:44;61.80;46.60;
69224;PMS1003;56333;51.306;17.056;2024-03-02T02:29:12;62.40;46.30;
69224;PMS1003;56333;51.306;17.056;2024-03-02T02:30:41;63.00;45.30;
69224;PMS1003;56333;51.306;17.056;2024-03-02T02:32:10;61.00;45.80;
69224;PMS1003;56333;51.306;17.056;2024-03-02T02:33:41;59.50;45.60;
69224;PMS1003;56333;51.306;17.056;2024-03-02T02:35:10;57.00;44.10;
69224;PMS1003;56333;51.306;17.056;2024-03-02T02:36:39;58.80;45.10;
69224;PMS1003;56333;51.306;17.056;2024-03-02T02:38:08;58.60;45.10;
69224;PMS1003;56333;51.306;17.056;2024-03-02T02:39:36;59.40;44.60;
69224;PMS1003;56333;51.306;17.056;2024-03-02T02:41:05;61.10;46.00;
69224;PMS1003;56333;51.306;17.056;2024-03-02T02:42:34;58.00;45.20;
69224;PMS1003;56333;51.306;17.056;2024-03-02T02:44:03;63.80;47.30;
69224;PMS1003;56333;51.306;17.056;2024-03-02T02:45:31;59.80;44.10;
69224;PMS1003;56333;51.306;17.056;2024-03-02T02:47:00;61.00;45.10;
69224;PMS1003;56333;51.306;17.056;2024-03-02T02:48:28;61.20;45.50;
69224;PMS1003;56333;51.306;17.056;2024-03-02T02:49:57;60.30;44.10;
69224;PMS1003;56333;51.306;17.056;2024-03-02T02:51:25;59.90;44.80;
69224;PMS1003;56333;51.306;17.056;2024-03-02T02:52:53;59.30;44.10;
69224;PMS1003;56333;51.306;17.056;2024-03-02T02:54:22;60.50;44.40;
69224;PMS1003;56333;51.306;17.056;2024-03-02T02:55:50;58.50;44.50;
69224;PMS1003;56333;51.306;17.056;2024-03-02T02:57:18;60.40;44.00;
69224;PMS1003;56333;51.306;17.056;2024-03-02T02:58:47;57.80;44.50;
69224;PMS1003;56333;51.306;17.056;2024-03-02T03:00:18;58.50;44.60;
69224;PMS1003;56333;51.306;17.056;2024-03-02T03:01:48;59.50;44.00;
69224;PMS1003;56333;51.306;17.056;2024-03-02T03:03:19;62.90;45.80;
69224;PMS1003;56333;51.306;17.056;2024-03-02T03:04:48;60.30;45.00;
69224;PMS1003;56333;51.306;17.056;2024-03-02T03:06:16;60.80;44.90;
69224;PMS1003;56333;51.306;17.056;2024-03-02T03:07:45;60.40;44.20;
69224;PMS1003;56333;51.306;17.056;2024-03-02T03:09:15;58.30;44.20;
69224;PMS1003;56333;51.306;17.056;2024-03-02T03:10:44;58.50;43.30;
69224;PMS1003;56333;51.306;17.056;2024-03-02T03:12:12;61.90;45.10;
69224;PMS1003;56333;51.306;17.056;2024-03-02T03:13:40;61.20;45.30;
69224;PMS1003;56333;51.306;17.056;2024-03-02T03:15:11;59.10;44.80;
69224;PMS1003;56333;51.306;17.056;2024-03-02T03:16:40;57.60;44.50;
69224;PMS1003;56333;51.306;17.056;2024-03-02T03:18:08;59.50;44.30;
69224;PMS1003;56333;51.306;17.056;2024-03-02T03:19:39;57.30;43.60;
69224;PMS1003;56333;51.306;17.056;2024-03-02T03:21:08;58.20;43.70;
69224;PMS1003;56333;51.306;17.056;2024-03-02T03:22:36;56.70;43.90;
69224;PMS1003;56333;51.306;17.056;2024-03-02T03:24:06;58.80;44.90;
69224;PMS1003;56333;51.306;17.056;2024-03-02T03:25:34;56.20;41.50;
69224;PMS1003;56333;51.306;17.056;2024-03-02T03:27:03;57.00;43.00;
69224;PMS1003;56333;51.306;17.056;2024-03-02T03:28:31;56.60;43.00;
69224;PMS1003;56333;51.306;17.056;2024-03-02T03:30:00;55.10;41.80;
69224;PMS1003;56333;51.306;17.056;2024-03-02T03:31:28;55.90;42.90;
69224;PMS1003;56333;51.306;17.056;2024-03-02T03:32:57;56.40;42.60;
69224;PMS1003;56333;51.306;17.056;2024-03-02T03:34:25;55.60;42.70;
69224;PMS1003;56333;51.306;17.056;2024-03-02T03:35:54;59.00;45.40;
69224;PMS1003;56333;51.306;17.056;2024-03-02T03:37:22;56.10;43.20;
69224;PMS1003;56333;51.306;17.056;2024-03-02T03:38:54;59.00;43.20;
69224;PMS1003;56333;51.306;17.056;2024-03-02T03:40:23;56.20;42.00;
69224;PMS1003;56333;51.306;17.056;2024-03-02T03:41:51;56.20;43.00;
69224;PMS1003;56333;51.306;17.056;2024-03-02T03:43:20;55.10;41.80;
69224;PMS1003;56333;51.306;17.056;2024-03-02T03:44:48;55.20;42.40;
69224;PMS1003;56333;51.306;17.056;2024-03-02T03:46:16;54.40;41.90;
69224;PMS1003;56333;51.306;17.056;2024-03-02T03:47:45;52.90;40.50;
69224;PMS1003;56333;51.306;17.056;2024-03-02T03:49:13;53.90;41.20;
69224;PMS1003;56333;51.306;17.056;2024-03-02T03:50:43;55.10;41.30;
69224;PMS1003;56333;51.306;17.056;2024-03-02T03:52:12;57.50;42.90;
69224;PMS1003;56333;51.306;17.056;2024-03-02T03:53:40;54.30;41.10;
69224;PMS1003;56333;51.306;17.056;2024-03-02T03:55:10;52.10;40.40;
69224;PMS1003;56333;51.306;17.056;2024-03-02T03:56:39;52.10;41.20;
69224;PMS1003;56333;51.306;17.056;2024-03-02T03:58:08;57.10;41.90;
69224;PMS1003;56333;51.306;17.056;2024-03-02T03:59:36;54.60;41.00;
69224;PMS1003;56333;51.306;17.056;2024-03-02T04:01:05;54.00;41.60;
69224;PMS1003;56333;51.306;17.056;2024-03-02T04:02:33;52.10;38.90;
69224;PMS1003;56333;51.306;17.056;2024-03-02T04:04:02;53.30;39.60;
69224;PMS1003;56333;51.306;17.056;2024-03-02T04:05:30;55.00;39.90;
69224;PMS1003;56333;51.306;17.056;2024-03-02T04:06:59;51.30;39.30;
69224;PMS1003;56333;51.306;17.056;2024-03-02T04:08:27;56.60;41.10;
69224;PMS1003;56333;51.306;17.056;2024-03-02T04:09:57;55.60;41.40;
69224;PMS1003;56333;51.306;17.056;2024-03-02T04:11:26;52.70;40.10;
69224;PMS1003;56333;51.306;17.056;2024-03-02T04:12:54;54.40;39.80;
69224;PMS1003;56333;51.306;17.056;2024-03-02T04:14:22;52.50;38.70;
69224;PMS1003;56333;51.306;17.056;2024-03-02T04:15:51;55.80;40.00;
69224;PMS1003;56333;51.306;17.056;2024-03-02T04:17:19;54.70;41.00;
69224;PMS1003;56333;51.306;17.056;2024-03-02T04:18:48;54.60;39.80;
69224;PMS1003;56333;51.306;17.056;2024-03-02T04:20:17;52.70;40.30;
69224;PMS1003;56333;51.306;17.056;2024-03-02T04:21:45;54.90;39.00;
69224;PMS1003;56333;51.306;17.056;2024-03-02T04:23:13;58.30;39.70;
69224;PMS1003;56333;51.306;17.056;2024-03-02T04:24:42;55.60;40.50;
69224;PMS1003;56333;51.306;17.056;2024-03-02T04:26:10;52.40;39.80;
69224;PMS1003;56333;51.306;17.056;2024-03-02T04:27:39;54.00;40.00;
69224;PMS1003;56333;51.306;17.056;2024-03-02T04:29:07;52.40;39.60;
69224;PMS1003;56333;51.306;17.056;2024-03-02T04:30:35;51.10;38.50;
69224;PMS1003;56333;51.306;17.056;2024-03-02T04:32:04;50.60;39.30;
69224;PMS1003;56333;51.306;17.056;2024-03-02T04:33:33;54.20;39.90;
69224;PMS1003;56333;51.306;17.056;2024-03-02T04:35:02;52.80;39.30;
69224;PMS1003;56333;51.306;17.056;2024-03-02T04:36:30;52.50;39.40;
69224;PMS1003;56333;51.306;17.056;2024-03-02T04:37:59;52.70;40.40;
69224;PMS1003;56333;51.306;17.056;2024-03-02T04:39:27;53.00;39.80;
69224;PMS1003;56333;51.306;17.056;2024-03-02T04:40:56;55.80;40.90;
69224;PMS1003;56333;51.306;17.056;2024-03-02T04:42:25;49.40;38.50;
69224;PMS1003;56333;51.306;17.056;2024-03-02T04:43:54;51.60;39.30;
69224;PMS1003;56333;51.306;17.056;2024-03-02T04:45:23;50.00;39.30;
69224;PMS1003;56333;51.306;17.056;2024-03-02T04:46:52;49.30;38.50;
69224;PMS1003;56333;51.306;17.056;2024-03-02T04:48:20;51.40;39.70;
69224;PMS1003;56333;51.306;17.056;2024-03-02T04:49:49;52.00;39.40;
69224;PMS1003;56333;51.306;17.056;2024-03-02T04:51:17;51.60;39.40;
69224;PMS1003;56333;51.306;17.056;2024-03-02T04:52:45;52.40;39.00;
69224;PMS1003;56333;51.306;17.056;2024-03-02T04:54:14;53.20;40.10;
69224;PMS1003;56333;51.306;17.056;2024-03-02T04:55:43;52.50;38.30;
69224;PMS1003;56333;51.306;17.056;2024-03-02T04:57:29;50.50;38.50;
69224;PMS1003;56333;51.306;17.056;2024-03-02T04:58:57;50.90;38.00;
69224;PMS1003;56333;51.306;17.056;2024-03-02T05:00:26;50.30;38.50;
69224;PMS1003;56333;51.306;17.056;2024-03-02T05:01:55;51.50;38.50;
69224;PMS1003;56333;51.306;17.056;2024-03-02T05:03:24;48.50;37.80;
69224;PMS1003;56333;51.306;17.056;2024-03-02T05:04:52;51.50;38.70;
69224;PMS1003;56333;51.306;17.056;2024-03-02T05:06:21;51.80;38.70;
69224;PMS1003;56333;51.306;17.056;2024-03-02T05:07:49;45.90;36.30;
69224;PMS1003;56333;51.306;17.056;2024-03-02T05:09:18;48.00;37.30;
69224;PMS1003;56333;51.306;17.056;2024-03-02T05:10:49;47.90;38.00;
69224;PMS1003;56333;51.306;17.056;2024-03-02T05:12:17;48.80;37.00;
69224;PMS1003;56333;51.306;17.056;2024-03-02T05:14:22;50.50;37.80;
69224;PMS1003;56333;51.306;17.056;2024-03-02T05:15:50;52.30;37.80;
69224;PMS1003;56333;51.306;17.056;2024-03-02T05:17:19;48.90;37.10;
69224;PMS1003;56333;51.306;17.056;2024-03-02T05:18:47;49.60;37.50;
69224;PMS1003;56333;51.306;17.056;2024-03-02T05:20:16;48.70;37.00;
69224;PMS1003;56333;51.306;17.056;2024-03-02T05:21:44;50.60;37.70;
69224;PMS1003;56333;51.306;17.056;2024-03-02T05:23:14;51.10;37.70;
69224;PMS1003;56333;51.306;17.056;2024-03-02T05:24:43;47.10;37.80;
69224;PMS1003;56333;51.306;17.056;2024-03-02T05:26:12;51.00;38.40;
69224;PMS1003;56333;51.306;17.056;2024-03-02T05:27:40;50.80;37.90;
69224;PMS1003;56333;51.306;17.056;2024-03-02T05:29:09;49.50;37.80;
69224;PMS1003;56333;51.306;17.056;2024-03-02T05:30:37;49.20;37.80;
69224;PMS1003;56333;51.306;17.056;2024-03-02T05:32:06;48.80;37.50;
69224;PMS1003;56333;51.306;17.056;2024-03-02T05:33:36;49.50;37.50;
69224;PMS1003;56333;51.306;17.056;2024-03-02T05:35:07;51.40;38.70;
69224;PMS1003;56333;51.306;17.056;2024-03-02T05:36:38;52.50;39.40;
69224;PMS1003;56333;51.306;17.056;2024-03-02T05:38:07;53.70;41.70;
69224;PMS1003;56333;51.306;17.056;2024-03-02T05:39:35;60.00;46.90;
69224;PMS1003;56333;51.306;17.056;2024-03-02T05:41:04;53.90;41.30;
69224;PMS1003;56333;51.306;17.056;2024-03-02T05:42:33;52.10;40.40;
69224;PMS1003;56333;51.306;17.056;2024-03-02T05:44:02;52.30;40.00;
69224;PMS1003;56333;51.306;17.056;2024-03-02T05:45:30;50.70;39.70;
69224;PMS1003;56333;51.306;17.056;2024-03-02T05:46:59;50.40;39.30;
69224;PMS1003;56333;51.306;17.056;2024-03-02T05:48:27;49.80;38.90;
69224;PMS1003;56333;51.306;17.056;2024-03-02T05:49:56;50.20;39.50;
69224;PMS1003;56333;51.306;17.056;2024-03-02T05:51:24;50.70;39.30;
69224;PMS1003;56333;51.306;17.056;2024-03-02T05:52:53;50.80;38.60;
69224;PMS1003;56333;51.306;17.056;2024-03-02T05:54:22;48.30;38.30;
69224;PMS1003;56333;51.306;17.056;2024-03-02T05:55:50;48.40;37.40;
69224;PMS1003;56333;51.306;17.056;2024-03-02T05:57:21;50.20;38.90;
69224;PMS1003;56333;51.306;17.056;2024-03-02T05:59:04;48.40;37.50;
69224;PMS1003;56333;51.306;17.056;2024-03-02T06:00:40;47.70;37.80;
69224;PMS1003;56333;51.306;17.056;2024-03-02T06:02:09;48.30;37.80;
69224;PMS1003;56333;51.306;17.056;2024-03-02T06:03:38;48.70;37.10;
69224;PMS1003;56333;51.306;17.056;2024-03-02T06:05:07;52.40;40.30;
69224;PMS1003;56333;51.306;17.056;2024-03-02T06:06:36;49.30;37.50;
69224;PMS1003;56333;51.306;17.056;2024-03-02T06:08:07;49.80;38.60;
69224;PMS1003;56333;51.306;17.056;2024-03-02T06:09:36;47.30;36.10;
69224;PMS1003;56333;51.306;17.056;2024-03-02T06:11:04;44.60;35.50;
69224;PMS1003;56333;51.306;17.056;2024-03-02T06:12:35;47.40;36.80;
69224;PMS1003;56333;51.306;17.056;2024-03-02T06:14:03;46.80;36.50;
69224;PMS1003;56333;51.306;17.056;2024-03-02T06:15:31;45.30;35.80;
69224;PMS1003;56333;51.306;17.056;2024-03-02T06:17:01;46.10;35.40;
69224;PMS1003;56333;51.306;17.056;2024-03-02T06:18:30;45.80;35.30;
69224;PMS1003;56333;51.306;17.056;2024-03-02T06:19:59;47.70;36.20;
69224;PMS1003;56333;51.306;17.056;2024-03-02T06:21:27;46.80;36.50;
69224;PMS1003;56333;51.306;17.056;2024-03-02T06:22:56;47.20;36.40;
69224;PMS1003;56333;51.306;17.056;2024-03-02T06:24:24;47.10;35.60;
69224;PMS1003;56333;51.306;17.056;2024-03-02T06:25:53;47.90;35.80;
69224;PMS1003;56333;51.306;17.056;2024-03-02T06:27:21;45.60;36.00;
69224;PMS1003;56333;51.306;17.056;2024-03-02T06:28:50;47.90;36.70;
69224;PMS1003;56333;51.306;17.056;2024-03-02T06:30:19;49.00;38.20;
69224;PMS1003;56333;51.306;17.056;2024-03-02T06:31:47;52.00;40.30;
69224;PMS1003;56333;51.306;17.056;2024-03-02T06:33:16;51.30;39.10;
69224;PMS1003;56333;51.306;17.056;2024-03-02T06:34:44;48.60;38.10;
69224;PMS1003;56333;51.306;17.056;2024-03-02T06:36:13;50.00;37.70;
69224;PMS1003;56333;51.306;17.056;2024-03-02T06:37:42;51.40;38.90;
69224;PMS1003;56333;51.306;17.056;2024-03-02T06:39:10;49.50;37.40;
69224;PMS1003;56333;51.306;17.056;2024-03-02T06:40:39;49.10;36.80;
69224;PMS1003;56333;51.306;17.056;2024-03-02T06:42:08;47.50;36.70;
69224;PMS1003;56333;51.306;17.056;2024-03-02T06:43:36;48.40;37.20;
69224;PMS1003;56333;51.306;17.056;2024-03-02T06:45:06;46.80;35.70;
69224;PMS1003;56333;51.306;17.056;2024-03-02T06:46:34;50.70;38.40;
69224;PMS1003;56333;51.306;17.056;2024-03-02T06:48:03;47.40;38.20;
69224;PMS1003;56333;51.306;17.056;2024-03-02T06:49:32;49.90;39.20;
69224;PMS1003;56333;51.306;17.056;2024-03-02T06:51:01;49.90;39.20;
69224;PMS1003;56333;51.306;17.056;2024-03-02T06:52:30;52.40;39.70;
69224;PMS1003;56333;51.306;17.056;2024-03-02T06:53:59;50.40;38.40;
69224;PMS1003;56333;51.306;17.056;2024-03-02T06:55:27;50.70;39.30;
69224;PMS1003;56333;51.306;17.056;2024-03-02T06:56:56;49.00;38.50;
69224;PMS1003;56333;51.306;17.056;2024-03-02T06:58:24;50.20;38.40;
69224;PMS1003;56333;51.306;17.056;2024-03-02T06:59:53;52.60;37.90;
69224;PMS1003;56333;51.306;17.056;2024-03-02T07:01:24;50.80;38.80;
69224;PMS1003;56333;51.306;17.056;2024-03-02T07:02:53;51.80;38.70;
69224;PMS1003;56333;51.306;17.056;2024-03-02T07:04:22;51.60;39.20;
69224;PMS1003;56333;51.306;17.056;2024-03-02T07:05:50;52.50;39.80;
69224;PMS1003;56333;51.306;17.056;2024-03-02T07:07:19;55.50;41.20;
69224;PMS1003;56333;51.306;17.056;2024-03-02T07:08:47;53.60;41.40;
69224;PMS1003;56333;51.306;17.056;2024-03-02T07:10:16;60.30;43.80;
69224;PMS1003;56333;51.306;17.056;2024-03-02T07:11:44;56.10;43.30;
69224;PMS1003;56333;51.306;17.056;2024-03-02T07:13:13;56.30;42.30;
69224;PMS1003;56333;51.306;17.056;2024-03-02T07:14:41;54.70;41.20;
69224;PMS1003;56333;51.306;17.056;2024-03-02T07:16:38;50.30;39.10;
69224;PMS1003;56333;51.306;17.056;2024-03-02T07:18:08;55.60;40.70;
69224;PMS1003;56333;51.306;17.056;2024-03-02T07:19:36;53.70;41.00;
69224;PMS1003;56333;51.306;17.056;2024-03-02T07:21:06;51.30;39.80;
69224;PMS1003;56333;51.306;17.056;2024-03-02T07:22:37;51.90;39.70;
69224;PMS1003;56333;51.306;17.056;2024-03-02T07:24:06;53.60;41.20;
69224;PMS1003;56333;51.306;17.056;2024-03-02T07:25:38;54.60;40.90;
69224;PMS1003;56333;51.306;17.056;2024-03-02T07:27:07;54.70;40.70;
69224;PMS1003;56333;51.306;17.056;2024-03-02T07:28:37;52.20;41.20;
69224;PMS1003;56333;51.306;17.056;2024-03-02T07:30:08;51.40;40.60;
69224;PMS1003;56333;51.306;17.056;2024-03-02T07:31:40;53.40;40.20;
69224;PMS1003;56333;51.306;17.056;2024-03-02T07:33:09;56.40;42.20;
69224;PMS1003;56333;51.306;17.056;2024-03-02T07:34:37;51.80;41.20;
69224;PMS1003;56333;51.306;17.056;2024-03-02T07:36:08;54.40;40.80;
69224;PMS1003;56333;51.306;17.056;2024-03-02T07:37:36;54.50;41.20;
69224;PMS1003;56333;51.306;17.056;2024-03-02T07:39:05;54.50;40.70;
69224;PMS1003;56333;51.306;17.056;2024-03-02T07:40:34;54.30;40.50;
69224;PMS1003;56333;51.306;17.056;2024-03-02T07:42:03;56.00;42.10;
69224;PMS1003;56333;51.306;17.056;2024-03-02T07:43:31;53.00;41.80;
69224;PMS1003;56333;51.306;17.056;2024-03-02T07:45:00;55.00;40.90;
69224;PMS1003;56333;51.306;17.056;2024-03-02T07:46:28;53.70;41.50;
69224;PMS1003;56333;51.306;17.056;2024-03-02T07:47:56;53.30;41.40;
69224;PMS1003;56333;51.306;17.056;2024-03-02T07:49:25;54.40;40.30;
69224;PMS1003;56333;51.306;17.056;2024-03-02T07:50:53;54.10;41.30;
69224;PMS1003;56333;51.306;17.056;2024-03-02T07:52:22;54.20;41.80;
69224;PMS1003;56333;51.306;17.056;2024-03-02T07:53:50;52.40;39.60;
69224;PMS1003;56333;51.306;17.056;2024-03-02T07:55:19;53.80;40.50;
69224;PMS1003;56333;51.306;17.056;2024-03-02T07:56:49;58.50;43.40;
69224;PMS1003;56333;51.306;17.056;2024-03-02T07:58:18;55.90;40.30;
69224;PMS1003;56333;51.306;17.056;2024-03-02T07:59:47;52.10;40.40;
69224;PMS1003;56333;51.306;17.056;2024-03-02T08:01:16;50.20;39.90;
69224;PMS1003;56333;51.306;17.056;2024-03-02T08:02:45;57.00;44.10;
69224;PMS1003;56333;51.306;17.056;2024-03-02T08:04:14;52.20;41.50;
69224;PMS1003;56333;51.306;17.056;2024-03-02T08:05:43;53.90;41.90;
69224;PMS1003;56333;51.306;17.056;2024-03-02T08:07:12;50.50;40.50;
69224;PMS1003;56333;51.306;17.056;2024-03-02T08:08:41;53.80;41.70;
69224;PMS1003;56333;51.306;17.056;2024-03-02T08:10:11;52.50;40.50;
69224;PMS1003;56333;51.306;17.056;2024-03-02T08:11:41;53.00;40.10;
69224;PMS1003;56333;51.306;17.056;2024-03-02T08:13:09;47.30;38.50;
69224;PMS1003;56333;51.306;17.056;2024-03-02T08:14:37;52.30;38.70;
69224;PMS1003;56333;51.306;17.056;2024-03-02T08:16:07;51.20;39.40;
69224;PMS1003;56333;51.306;17.056;2024-03-02T08:17:35;52.30;39.40;
69224;PMS1003;56333;51.306;17.056;2024-03-02T08:19:06;53.20;39.20;
69224;PMS1003;56333;51.306;17.056;2024-03-02T08:20:35;51.90;41.60;
69224;PMS1003;56333;51.306;17.056;2024-03-02T08:22:05;53.70;42.50;
69224;PMS1003;56333;51.306;17.056;2024-03-02T08:23:33;54.20;42.70;
69224;PMS1003;56333;51.306;17.056;2024-03-02T08:25:02;51.90;41.80;
69224;PMS1003;56333;51.306;17.056;2024-03-02T08:26:32;52.10;39.90;
69224;PMS1003;56333;51.306;17.056;2024-03-02T08:28:01;51.20;39.40;
69224;PMS1003;56333;51.306;17.056;2024-03-02T08:29:30;49.50;39.20;
69224;PMS1003;56333;51.306;17.056;2024-03-02T08:30:59;50.70;38.90;
69224;PMS1003;56333;51.306;17.056;2024-03-02T08:32:28;51.90;39.30;
69224;PMS1003;56333;51.306;17.056;2024-03-02T08:33:57;48.40;37.70;
69224;PMS1003;56333;51.306;17.056;2024-03-02T08:35:27;47.80;37.40;
69224;PMS1003;56333;51.306;17.056;2024-03-02T08:37:01;47.60;36.40;
69224;PMS1003;56333;51.306;17.056;2024-03-02T08:38:30;47.80;37.50;
69224;PMS1003;56333;51.306;17.056;2024-03-02T08:39:58;50.60;38.30;
69224;PMS1003;56333;51.306;17.056;2024-03-02T08:41:29;50.00;37.40;
69224;PMS1003;56333;51.306;17.056;2024-03-02T08:42:58;47.50;37.50;
69224;PMS1003;56333;51.306;17.056;2024-03-02T08:44:26;48.90;37.80;
69224;PMS1003;56333;51.306;17.056;2024-03-02T08:45:55;50.80;37.50;
69224;PMS1003;56333;51.306;17.056;2024-03-02T08:47:24;47.80;36.90;
69224;PMS1003;56333;51.306;17.056;2024-03-02T08:48:52;47.80;35.80;
69224;PMS1003;56333;51.306;17.056;2024-03-02T08:50:21;50.80;37.30;
69224;PMS1003;56333;51.306;17.056;2024-03-02T08:51:49;53.60;39.00;
69224;PMS1003;56333;51.306;17.056;2024-03-02T08:53:20;49.40;37.50;